sensor_id;sensor_type;location;lat;lon;timestamp;P1;durP1;ratioP1;P2;durP2;ratioP2
71395;SDS011;59888;55.814;37.132;2023-07-24T00:00:31;4.82;;;2.80;;
71395;SDS011;59888;55.814;37.132;2023-07-24T00:02:59;4.53;;;2.67;;
71395;SDS011;59888;55.814;37.132;2023-07-24T00:05:25;4.53;;;3.05;;
71395;SDS011;59888;55.814;37.132;2023-07-24T00:07:51;4.50;;;2.75;;
71395;SDS011;59888;55.814;37.132;2023-07-24T00:10:17;5.70;;;3.10;;
71395;SDS011;59888;55.814;37.132;2023-07-24T00:12:43;5.28;;;2.70;;
71395;SDS011;59888;55.814;37.132;2023-07-24T00:15:09;5.03;;;2.72;;
71395;SDS011;59888;55.814;37.132;2023-07-24T00:17:36;4.30;;;2.75;;
71395;SDS011;59888;55.814;37.132;2023-07-24T00:20:07;5.00;;;2.80;;
71395;SDS011;59888;55.814;37.132;2023-07-24T00:22:33;4.68;;;2.70;;
71395;SDS011;59888;55.814;37.132;2023-07-24T00:25:00;4.60;;;2.80;;
71395;SDS011;59888;55.814;37.132;2023-07-24T00:27:25;3.63;;;2.70;;
71395;SDS011;59888;55.814;37.132;2023-07-24T00:29:51;5.65;;;2.67;;
71395;SDS011;59888;55.814;37.132;2023-07-24T00:32:18;5.97;;;3.10;;
71395;SDS011;59888;55.814;37.132;2023-07-24T00:34:44;4.90;;;2.70;;
71395;SDS011;59888;55.814;37.132;2023-07-24T00:37:09;6.72;;;2.60;;
71395;SDS011;59888;55.814;37.132;2023-07-24T00:39:36;4.78;;;3.10;;
71395;SDS011;59888;55.814;37.132;2023-07-24T00:42:02;5.07;;;2.83;;
71395;SDS011;59888;55.814;37.132;2023-07-24T00:44:28;8.40;;;3.30;;
71395;SDS011;59888;55.814;37.132;2023-07-24T00:46:54;5.00;;;2.90;;
71395;SDS011;59888;55.814;37.132;2023-07-24T00:49:20;4.10;;;2.80;;
71395;SDS011;59888;55.814;37.132;2023-07-24T00:51:47;4.20;;;2.97;;
71395;SDS011;59888;55.814;37.132;2023-07-24T00:54:13;5.95;;;2.72;;
71395;SDS011;59888;55.814;37.132;2023-07-24T00:56:44;5.57;;;2.97;;
71395;SDS011;59888;55.814;37.132;2023-07-24T00:59:11;5.65;;;2.90;;
71395;SDS011;59888;55.814;37.132;2023-07-24T01:01:37;8.30;;;3.08;;
71395;SDS011;59888;55.814;37.132;2023-07-24T01:04:07;5.50;;;2.80;;
71395;SDS011;59888;55.814;37.132;2023-07-24T01:06:33;6.03;;;2.97;;
71395;SDS011;59888;55.814;37.132;2023-07-24T01:09:02;4.78;;;3.13;;
71395;SDS011;59888;55.814;37.132;2023-07-24T01:11:34;4.03;;;2.72;;
71395;SDS011;59888;55.814;37.132;2023-07-24T01:14:27;5.38;;;2.90;;
71395;SDS011;59888;55.814;37.132;2023-07-24T01:17:13;4.30;;;2.53;;
71395;SDS011;59888;55.814;37.132;2023-07-24T01:27:18;5.45;;;2.80;;
71395;SDS011;59888;55.814;37.132;2023-07-24T01:29:51;5.05;;;2.90;;
71395;SDS011;59888;55.814;37.132;2023-07-24T01:32:17;7.25;;;3.08;;
71395;SDS011;59888;55.814;37.132;2023-07-24T01:34:45;3.88;;;2.60;;
71395;SDS011;59888;55.814;37.132;2023-07-24T01:37:12;6.35;;;2.75;;
71395;SDS011;59888;55.814;37.132;2023-07-24T01:39:43;5.70;;;2.90;;
71395;SDS011;59888;55.814;37.132;2023-07-24T01:42:11;6.97;;;2.78;;
71395;SDS011;59888;55.814;37.132;2023-07-24T01:44:38;4.28;;;2.83;;
71395;SDS011;59888;55.814;37.132;2023-07-24T01:47:04;6.50;;;3.33;;
71395;SDS011;59888;55.814;37.132;2023-07-24T01:49:30;4.45;;;2.65;;
71395;SDS011;59888;55.814;37.132;2023-07-24T01:51:57;3.75;;;2.47;;
71395;SDS011;59888;55.814;37.132;2023-07-24T01:54:23;3.78;;;2.55;;
71395;SDS011;59888;55.814;37.132;2023-07-24T01:56:50;4.55;;;2.30;;
71395;SDS011;59888;55.814;37.132;2023-07-24T01:59:27;8.40;;;2.50;;
71395;SDS011;59888;55.814;37.132;2023-07-24T02:01:53;4.00;;;2.70;;
71395;SDS011;59888;55.814;37.132;2023-07-24T02:04:20;4.40;;;2.40;;
71395;SDS011;59888;55.814;37.132;2023-07-24T02:06:48;5.43;;;2.45;;
71395;SDS011;59888;55.814;37.132;2023-07-24T02:09:15;4.88;;;2.70;;
71395;SDS011;59888;55.814;37.132;2023-07-24T02:11:44;3.63;;;2.58;;
71395;SDS011;59888;55.814;37.132;2023-07-24T02:14:11;7.18;;;2.60;;
71395;SDS011;59888;55.814;37.132;2023-07-24T02:16:38;3.72;;;2.50;;
71395;SDS011;59888;55.814;37.132;2023-07-24T02:19:10;6.18;;;2.60;;
71395;SDS011;59888;55.814;37.132;2023-07-24T02:21:56;3.40;;;2.50;;
71395;SDS011;59888;55.814;37.132;2023-07-24T02:24:22;9.43;;;3.30;;
71395;SDS011;59888;55.814;37.132;2023-07-24T02:26:48;3.70;;;2.60;;
71395;SDS011;59888;55.814;37.132;2023-07-24T02:29:14;5.20;;;2.33;;
71395;SDS011;59888;55.814;37.132;2023-07-24T02:31:42;3.65;;;2.55;;
71395;SDS011;59888;55.814;37.132;2023-07-24T02:34:08;5.13;;;2.90;;
71395;SDS011;59888;55.814;37.132;2023-07-24T02:36:34;3.28;;;2.28;;
71395;SDS011;59888;55.814;37.132;2023-07-24T02:39:02;3.75;;;2.47;;
71395;SDS011;59888;55.814;37.132;2023-07-24T02:41:28;5.50;;;2.40;;
71395;SDS011;59888;55.814;37.132;2023-07-24T02:43:54;3.60;;;2.25;;
71395;SDS011;59888;55.814;37.132;2023-07-24T02:46:20;4.35;;;2.60;;
71395;SDS011;59888;55.814;37.132;2023-07-24T02:48:48;3.72;;;2.47;;
71395;SDS011;59888;55.814;37.132;2023-07-24T02:51:14;4.40;;;2.38;;
71395;SDS011;59888;55.814;37.132;2023-07-24T02:53:40;4.03;;;2.63;;
71395;SDS011;59888;55.814;37.132;2023-07-24T02:56:06;3.75;;;2.53;;
71395;SDS011;59888;55.814;37.132;2023-07-24T02:58:32;3.55;;;2.40;;
71395;SDS011;59888;55.814;37.132;2023-07-24T03:01:02;5.05;;;2.30;;
71395;SDS011;59888;55.814;37.132;2023-07-24T03:03:29;4.68;;;2.40;;
71395;SDS011;59888;55.814;37.132;2023-07-24T03:05:55;4.55;;;2.55;;
71395;SDS011;59888;55.814;37.132;2023-07-24T03:08:21;5.90;;;2.60;;
71395;SDS011;59888;55.814;37.132;2023-07-24T03:10:47;6.07;;;2.60;;
71395;SDS011;59888;55.814;37.132;2023-07-24T03:13:14;7.30;;;2.63;;
71395;SDS011;59888;55.814;37.132;2023-07-24T03:15:43;4.57;;;2.70;;
71395;SDS011;59888;55.814;37.132;2023-07-24T03:18:10;6.75;;;2.33;;
71395;SDS011;59888;55.814;37.132;2023-07-24T03:20:36;8.40;;;2.30;;
71395;SDS011;59888;55.814;37.132;2023-07-24T03:23:02;6.93;;;2.53;;
71395;SDS011;59888;55.814;37.132;2023-07-24T03:25:28;4.85;;;2.70;;
71395;SDS011;59888;55.814;37.132;2023-07-24T03:27:55;4.15;;;2.40;;
71395;SDS011;59888;55.814;37.132;2023-07-24T03:30:21;4.13;;;2.22;;
71395;SDS011;59888;55.814;37.132;2023-07-24T03:32:47;3.60;;;2.40;;
71395;SDS011;59888;55.814;37.132;2023-07-24T03:35:13;4.18;;;2.58;;
71395;SDS011;59888;55.814;37.132;2023-07-24T03:37:40;4.13;;;2.20;;
71395;SDS011;59888;55.814;37.132;2023-07-24T03:40:17;4.30;;;2.50;;
71395;SDS011;59888;55.814;37.132;2023-07-24T03:42:44;4.35;;;2.63;;
71395;SDS011;59888;55.814;37.132;2023-07-24T03:45:10;3.85;;;2.65;;
71395;SDS011;59888;55.814;37.132;2023-07-24T03:47:37;3.60;;;2.28;;
71395;SDS011;59888;55.814;37.132;2023-07-24T03:50:03;6.30;;;2.47;;
71395;SDS011;59888;55.814;37.132;2023-07-24T03:52:29;3.05;;;2.20;;
71395;SDS011;59888;55.814;37.132;2023-07-24T03:54:55;5.50;;;2.45;;
71395;SDS011;59888;55.814;37.132;2023-07-24T03:57:22;4.05;;;2.30;;
71395;SDS011;59888;55.814;37.132;2023-07-24T04:02:40;5.07;;;2.45;;
71395;SDS011;59888;55.814;37.132;2023-07-24T04:05:06;5.97;;;2.83;;
71395;SDS011;59888;55.814;37.132;2023-07-24T04:07:32;4.18;;;2.53;;
71395;SDS011;59888;55.814;37.132;2023-07-24T04:09:58;3.47;;;2.20;;
71395;SDS011;59888;55.814;37.132;2023-07-24T04:12:24;6.63;;;2.25;;
71395;SDS011;59888;55.814;37.132;2023-07-24T04:14:51;3.47;;;2.30;;
71395;SDS011;59888;55.814;37.132;2023-07-24T04:17:17;3.65;;;2.33;;
71395;SDS011;59888;55.814;37.132;2023-07-24T04:19:48;5.57;;;2.17;;
71395;SDS011;59888;55.814;37.132;2023-07-24T04:22:14;3.88;;;2.33;;
71395;SDS011;59888;55.814;37.132;2023-07-24T04:24:40;6.47;;;2.40;;
71395;SDS011;59888;55.814;37.132;2023-07-24T04:27:06;3.90;;;2.58;;
71395;SDS011;59888;55.814;37.132;2023-07-24T04:29:32;4.82;;;2.10;;
71395;SDS011;59888;55.814;37.132;2023-07-24T04:31:58;5.88;;;2.20;;
71395;SDS011;59888;55.814;37.132;2023-07-24T04:34:24;4.38;;;2.30;;
71395;SDS011;59888;55.814;37.132;2023-07-24T04:36:50;3.30;;;2.20;;
71395;SDS011;59888;55.814;37.132;2023-07-24T04:39:16;4.93;;;2.60;;
71395;SDS011;59888;55.814;37.132;2023-07-24T04:41:42;3.60;;;2.00;;
71395;SDS011;59888;55.814;37.132;2023-07-24T04:44:08;4.45;;;2.42;;
71395;SDS011;59888;55.814;37.132;2023-07-24T04:46:34;5.60;;;2.55;;
71395;SDS011;59888;55.814;37.132;2023-07-24T04:49:00;2.50;;;1.70;;
71395;SDS011;59888;55.814;37.132;2023-07-24T04:51:26;3.25;;;2.00;;
71395;SDS011;59888;55.814;37.132;2023-07-24T04:53:53;3.78;;;1.73;;
71395;SDS011;59888;55.814;37.132;2023-07-24T04:56:19;6.80;;;1.95;;
71395;SDS011;59888;55.814;37.132;2023-07-24T04:58:45;4.50;;;2.28;;
71395;SDS011;59888;55.814;37.132;2023-07-24T05:01:11;7.45;;;2.00;;
71395;SDS011;59888;55.814;37.132;2023-07-24T05:03:37;4.55;;;1.90;;
71395;SDS011;59888;55.814;37.132;2023-07-24T05:06:03;3.83;;;2.05;;
71395;SDS011;59888;55.814;37.132;2023-07-24T05:08:30;4.97;;;2.03;;
71395;SDS011;59888;55.814;37.132;2023-07-24T05:10:56;3.10;;;1.73;;
71395;SDS011;59888;55.814;37.132;2023-07-24T05:13:25;4.45;;;1.95;;
71395;SDS011;59888;55.814;37.132;2023-07-24T05:15:51;4.35;;;1.75;;
71395;SDS011;59888;55.814;37.132;2023-07-24T05:18:17;4.13;;;1.80;;
71395;SDS011;59888;55.814;37.132;2023-07-24T05:20:47;3.97;;;1.88;;
71395;SDS011;59888;55.814;37.132;2023-07-24T05:23:14;3.35;;;1.73;;
71395;SDS011;59888;55.814;37.132;2023-07-24T05:25:41;4.88;;;2.10;;
71395;SDS011;59888;55.814;37.132;2023-07-24T05:28:07;2.53;;;1.60;;
71395;SDS011;59888;55.814;37.132;2023-07-24T05:30:33;2.40;;;1.88;;
71395;SDS011;59888;55.814;37.132;2023-07-24T05:36:03;3.55;;;1.90;;
71395;SDS011;59888;55.814;37.132;2023-07-24T05:38:30;6.25;;;2.08;;
71395;SDS011;59888;55.814;37.132;2023-07-24T05:40:56;4.38;;;1.92;;
71395;SDS011;59888;55.814;37.132;2023-07-24T05:43:27;3.65;;;1.80;;
71395;SDS011;59888;55.814;37.132;2023-07-24T05:45:54;3.60;;;1.92;;
71395;SDS011;59888;55.814;37.132;2023-07-24T05:48:26;3.53;;;2.00;;
71395;SDS011;59888;55.814;37.132;2023-07-24T05:50:52;3.38;;;1.85;;
71395;SDS011;59888;55.814;37.132;2023-07-24T05:53:18;4.47;;;1.70;;
71395;SDS011;59888;55.814;37.132;2023-07-24T05:55:44;2.75;;;1.70;;
71395;SDS011;59888;55.814;37.132;2023-07-24T05:58:11;4.38;;;1.83;;
71395;SDS011;59888;55.814;37.132;2023-07-24T06:00:37;3.72;;;1.85;;
71395;SDS011;59888;55.814;37.132;2023-07-24T06:03:03;2.90;;;1.67;;
71395;SDS011;59888;55.814;37.132;2023-07-24T06:05:29;4.43;;;2.40;;
71395;SDS011;59888;55.814;37.132;2023-07-24T06:07:55;4.30;;;1.73;;
71395;SDS011;59888;55.814;37.132;2023-07-24T06:10:21;2.83;;;1.60;;
71395;SDS011;59888;55.814;37.132;2023-07-24T06:12:47;2.50;;;1.60;;
71395;SDS011;59888;55.814;37.132;2023-07-24T06:15:13;3.45;;;1.80;;
71395;SDS011;59888;55.814;37.132;2023-07-24T06:17:41;4.28;;;2.00;;
71395;SDS011;59888;55.814;37.132;2023-07-24T06:20:12;2.50;;;1.80;;
71395;SDS011;59888;55.814;37.132;2023-07-24T06:22:38;3.75;;;1.55;;
71395;SDS011;59888;55.814;37.132;2023-07-24T06:25:04;2.95;;;1.85;;
71395;SDS011;59888;55.814;37.132;2023-07-24T06:27:30;5.22;;;2.00;;
71395;SDS011;59888;55.814;37.132;2023-07-24T06:29:56;3.47;;;1.88;;
71395;SDS011;59888;55.814;37.132;2023-07-24T06:32:22;3.55;;;1.80;;
71395;SDS011;59888;55.814;37.132;2023-07-24T06:34:49;2.63;;;1.55;;
71395;SDS011;59888;55.814;37.132;2023-07-24T06:37:14;4.05;;;1.88;;
71395;SDS011;59888;55.814;37.132;2023-07-24T06:39:40;3.05;;;1.52;;
71395;SDS011;59888;55.814;37.132;2023-07-24T06:42:10;3.15;;;1.90;;
71395;SDS011;59888;55.814;37.132;2023-07-24T06:44:36;4.68;;;1.83;;
71395;SDS011;59888;55.814;37.132;2023-07-24T06:47:03;5.10;;;1.65;;
71395;SDS011;59888;55.814;37.132;2023-07-24T06:49:29;4.20;;;1.30;;
71395;SDS011;59888;55.814;37.132;2023-07-24T06:51:55;6.03;;;1.40;;
71395;SDS011;59888;55.814;37.132;2023-07-24T06:54:21;2.88;;;1.50;;
71395;SDS011;59888;55.814;37.132;2023-07-24T06:56:48;2.97;;;1.42;;
71395;SDS011;59888;55.814;37.132;2023-07-24T06:59:14;1.88;;;1.20;;
71395;SDS011;59888;55.814;37.132;2023-07-24T07:01:39;2.72;;;1.50;;
71395;SDS011;59888;55.814;37.132;2023-07-24T07:04:06;1.98;;;1.10;;
71395;SDS011;59888;55.814;37.132;2023-07-24T07:06:32;1.95;;;1.30;;
71395;SDS011;59888;55.814;37.132;2023-07-24T07:08:58;2.15;;;1.17;;
71395;SDS011;59888;55.814;37.132;2023-07-24T07:11:24;6.45;;;1.20;;
71395;SDS011;59888;55.814;37.132;2023-07-24T07:13:50;2.97;;;1.27;;
71395;SDS011;59888;55.814;37.132;2023-07-24T07:16:15;2.65;;;1.20;;
71395;SDS011;59888;55.814;37.132;2023-07-24T07:18:44;2.72;;;1.40;;
71395;SDS011;59888;55.814;37.132;2023-07-24T07:21:10;2.85;;;1.33;;
71395;SDS011;59888;55.814;37.132;2023-07-24T07:23:36;2.80;;;1.40;;
71395;SDS011;59888;55.814;37.132;2023-07-24T07:26:03;3.60;;;1.42;;
71395;SDS011;59888;55.814;37.132;2023-07-24T07:28:28;4.10;;;1.35;;
71395;SDS011;59888;55.814;37.132;2023-07-24T07:30:54;3.80;;;1.40;;
71395;SDS011;59888;55.814;37.132;2023-07-24T07:33:21;3.08;;;1.60;;
71395;SDS011;59888;55.814;37.132;2023-07-24T07:35:50;2.67;;;1.40;;
71395;SDS011;59888;55.814;37.132;2023-07-24T07:38:16;2.75;;;1.48;;
71395;SDS011;59888;55.814;37.132;2023-07-24T07:40:42;3.08;;;1.40;;
71395;SDS011;59888;55.814;37.132;2023-07-24T07:43:08;4.30;;;1.80;;
71395;SDS011;59888;55.814;37.132;2023-07-24T07:45:34;2.22;;;1.38;;
71395;SDS011;59888;55.814;37.132;2023-07-24T07:48:00;2.25;;;1.27;;
71395;SDS011;59888;55.814;37.132;2023-07-24T07:50:26;4.25;;;1.77;;
71395;SDS011;59888;55.814;37.132;2023-07-24T07:52:52;3.53;;;1.88;;
71395;SDS011;59888;55.814;37.132;2023-07-24T07:55:18;3.85;;;1.70;;
71395;SDS011;59888;55.814;37.132;2023-07-24T07:57:45;3.65;;;1.60;;
71395;SDS011;59888;55.814;37.132;2023-07-24T08:00:11;3.80;;;1.55;;
71395;SDS011;59888;55.814;37.132;2023-07-24T08:02:38;5.68;;;1.77;;
71395;SDS011;59888;55.814;37.132;2023-07-24T08:05:07;4.40;;;1.75;;
71395;SDS011;59888;55.814;37.132;2023-07-24T08:07:34;4.53;;;1.83;;
71395;SDS011;59888;55.814;37.132;2023-07-24T08:10:10;3.75;;;2.10;;
71395;SDS011;59888;55.814;37.132;2023-07-24T08:12:36;3.50;;;1.83;;
71395;SDS011;59888;55.814;37.132;2023-07-24T08:15:02;4.25;;;1.98;;
71395;SDS011;59888;55.814;37.132;2023-07-24T08:17:31;4.15;;;1.83;;
71395;SDS011;59888;55.814;37.132;2023-07-24T08:19:58;4.47;;;2.28;;
71395;SDS011;59888;55.814;37.132;2023-07-24T08:22:23;4.18;;;1.80;;
71395;SDS011;59888;55.814;37.132;2023-07-24T08:24:49;2.92;;;2.00;;
71395;SDS011;59888;55.814;37.132;2023-07-24T08:27:17;3.60;;;1.90;;
71395;SDS011;59888;55.814;37.132;2023-07-24T08:29:43;6.18;;;1.80;;
71395;SDS011;59888;55.814;37.132;2023-07-24T08:32:09;4.85;;;1.80;;
71395;SDS011;59888;55.814;37.132;2023-07-24T08:34:35;3.13;;;1.70;;
71395;SDS011;59888;55.814;37.132;2023-07-24T08:37:01;3.47;;;1.70;;
71395;SDS011;59888;55.814;37.132;2023-07-24T08:39:27;3.67;;;1.90;;
71395;SDS011;59888;55.814;37.132;2023-07-24T08:41:53;3.63;;;1.90;;
71395;SDS011;59888;55.814;37.132;2023-07-24T08:44:19;4.30;;;1.85;;
71395;SDS011;59888;55.814;37.132;2023-07-24T08:46:50;2.83;;;1.63;;
71395;SDS011;59888;55.814;37.132;2023-07-24T08:49:17;3.60;;;1.83;;
71395;SDS011;59888;55.814;37.132;2023-07-24T08:51:44;3.33;;;1.80;;
71395;SDS011;59888;55.814;37.132;2023-07-24T08:54:12;5.55;;;2.13;;
71395;SDS011;59888;55.814;37.132;2023-07-24T08:56:40;4.07;;;1.60;;
71395;SDS011;59888;55.814;37.132;2023-07-24T08:59:09;4.05;;;2.00;;
71395;SDS011;59888;55.814;37.132;2023-07-24T09:01:35;3.35;;;1.90;;
71395;SDS011;59888;55.814;37.132;2023-07-24T09:04:01;3.63;;;1.98;;
71395;SDS011;59888;55.814;37.132;2023-07-24T09:06:27;3.22;;;1.77;;
71395;SDS011;59888;55.814;37.132;2023-07-24T09:08:53;5.18;;;2.03;;
71395;SDS011;59888;55.814;37.132;2023-07-24T09:11:21;4.15;;;2.00;;
71395;SDS011;59888;55.814;37.132;2023-07-24T09:13:47;4.47;;;2.28;;
71395;SDS011;59888;55.814;37.132;2023-07-24T09:16:24;3.38;;;2.17;;
71395;SDS011;59888;55.814;37.132;2023-07-24T09:18:52;3.08;;;2.10;;
71395;SDS011;59888;55.814;37.132;2023-07-24T09:21:30;4.00;;;2.25;;
71395;SDS011;59888;55.814;37.132;2023-07-24T09:23:57;4.95;;;2.00;;
71395;SDS011;59888;55.814;37.132;2023-07-24T09:26:24;2.88;;;1.92;;
71395;SDS011;59888;55.814;37.132;2023-07-24T09:28:53;5.72;;;2.00;;
71395;SDS011;59888;55.814;37.132;2023-07-24T09:31:20;3.45;;;1.70;;
71395;SDS011;59888;55.814;37.132;2023-07-24T09:33:46;3.88;;;2.00;;
71395;SDS011;59888;55.814;37.132;2023-07-24T09:36:12;2.72;;;1.83;;
71395;SDS011;59888;55.814;37.132;2023-07-24T09:38:38;3.58;;;1.75;;
71395;SDS011;59888;55.814;37.132;2023-07-24T09:41:05;4.35;;;2.00;;
71395;SDS011;59888;55.814;37.132;2023-07-24T09:43:32;6.47;;;2.08;;
71395;SDS011;59888;55.814;37.132;2023-07-24T09:46:01;4.45;;;2.22;;
71395;SDS011;59888;55.814;37.132;2023-07-24T09:48:30;4.03;;;1.92;;
71395;SDS011;59888;55.814;37.132;2023-07-24T09:50:57;4.60;;;2.60;;
71395;SDS011;59888;55.814;37.132;2023-07-24T09:53:38;4.50;;;2.70;;
71395;SDS011;59888;55.814;37.132;2023-07-24T09:56:08;4.90;;;1.97;;
71395;SDS011;59888;55.814;37.132;2023-07-24T09:58:36;3.40;;;1.80;;
71395;SDS011;59888;55.814;37.132;2023-07-24T10:01:07;3.75;;;1.75;;
71395;SDS011;59888;55.814;37.132;2023-07-24T10:03:35;6.38;;;2.22;;
71395;SDS011;59888;55.814;37.132;2023-07-24T10:06:03;3.22;;;1.77;;
71395;SDS011;59888;55.814;37.132;2023-07-24T10:08:32;3.22;;;1.73;;
71395;SDS011;59888;55.814;37.132;2023-07-24T10:10:58;5.65;;;2.05;;
71395;SDS011;59888;55.814;37.132;2023-07-24T10:13:25;3.67;;;2.30;;
71395;SDS011;59888;55.814;37.132;2023-07-24T10:15:52;5.65;;;2.00;;
71395;SDS011;59888;55.814;37.132;2023-07-24T10:18:26;4.70;;;2.38;;
71395;SDS011;59888;55.814;37.132;2023-07-24T10:21:03;3.72;;;2.17;;
71395;SDS011;59888;55.814;37.132;2023-07-24T10:23:31;4.68;;;2.15;;
71395;SDS011;59888;55.814;37.132;2023-07-24T10:26:04;3.97;;;2.30;;
71395;SDS011;59888;55.814;37.132;2023-07-24T10:28:34;4.90;;;2.40;;
71395;SDS011;59888;55.814;37.132;2023-07-24T10:31:22;5.22;;;2.53;;
71395;SDS011;59888;55.814;37.132;2023-07-24T10:33:52;6.30;;;2.40;;
71395;SDS011;59888;55.814;37.132;2023-07-24T10:36:19;5.15;;;2.60;;
71395;SDS011;59888;55.814;37.132;2023-07-24T10:38:55;3.30;;;2.30;;
71395;SDS011;59888;55.814;37.132;2023-07-24T10:41:22;4.22;;;2.60;;
71395;SDS011;59888;55.814;37.132;2023-07-24T10:43:59;5.07;;;2.80;;
71395;SDS011;59888;55.814;37.132;2023-07-24T10:46:40;3.75;;;2.53;;
71395;SDS011;59888;55.814;37.132;2023-07-24T10:49:11;4.72;;;2.40;;
71395;SDS011;59888;55.814;37.132;2023-07-24T10:51:38;3.65;;;2.60;;
71395;SDS011;59888;55.814;37.132;2023-07-24T10:54:04;6.85;;;2.42;;
71395;SDS011;59888;55.814;37.132;2023-07-24T10:56:31;7.07;;;2.78;;
71395;SDS011;59888;55.814;37.132;2023-07-24T10:59:02;3.80;;;2.50;;
71395;SDS011;59888;55.814;37.132;2023-07-24T11:01:31;4.27;;;2.90;;
71395;SDS011;59888;55.814;37.132;2023-07-24T11:03:59;4.00;;;2.60;;
71395;SDS011;59888;55.814;37.132;2023-07-24T11:06:26;5.40;;;2.80;;
71395;SDS011;59888;55.814;37.132;2023-07-24T11:08:55;5.57;;;2.97;;
71395;SDS011;59888;55.814;37.132;2023-07-24T11:11:28;6.10;;;2.90;;
71395;SDS011;59888;55.814;37.132;2023-07-24T11:13:58;4.63;;;2.88;;
71395;SDS011;59888;55.814;37.132;2023-07-24T11:16:25;4.57;;;3.05;;
71395;SDS011;59888;55.814;37.132;2023-07-24T11:18:51;5.20;;;2.55;;
71395;SDS011;59888;55.814;37.132;2023-07-24T11:21:18;4.22;;;2.63;;
71395;SDS011;59888;55.814;37.132;2023-07-24T11:23:51;5.70;;;3.00;;
71395;SDS011;59888;55.814;37.132;2023-07-24T11:26:22;4.63;;;3.10;;
71395;SDS011;59888;55.814;37.132;2023-07-24T11:28:51;5.13;;;3.00;;
71395;SDS011;59888;55.814;37.132;2023-07-24T11:31:18;4.65;;;2.88;;
71395;SDS011;59888;55.814;37.132;2023-07-24T11:33:48;4.88;;;3.10;;
71395;SDS011;59888;55.814;37.132;2023-07-24T11:36:15;5.05;;;2.90;;
71395;SDS011;59888;55.814;37.132;2023-07-24T11:38:41;5.50;;;3.08;;
71395;SDS011;59888;55.814;37.132;2023-07-24T11:41:08;4.70;;;3.00;;
71395;SDS011;59888;55.814;37.132;2023-07-24T11:43:34;5.43;;;3.15;;
71395;SDS011;59888;55.814;37.132;2023-07-24T11:46:00;4.32;;;3.00;;
71395;SDS011;59888;55.814;37.132;2023-07-24T11:48:26;4.50;;;2.88;;
71395;SDS011;59888;55.814;37.132;2023-07-24T11:50:56;5.78;;;3.28;;
71395;SDS011;59888;55.814;37.132;2023-07-24T11:55:59;6.40;;;3.17;;
71395;SDS011;59888;55.814;37.132;2023-07-24T11:58:28;5.25;;;2.95;;
71395;SDS011;59888;55.814;37.132;2023-07-24T12:00:55;5.22;;;3.20;;
71395;SDS011;59888;55.814;37.132;2023-07-24T12:35:07;4.18;;;2.80;;
71395;SDS011;59888;55.814;37.132;2023-07-24T12:37:34;4.00;;;2.92;;
71395;SDS011;59888;55.814;37.132;2023-07-24T12:40:01;4.97;;;2.90;;
71395;SDS011;59888;55.814;37.132;2023-07-24T12:42:29;4.15;;;2.95;;
71395;SDS011;59888;55.814;37.132;2023-07-24T12:48:18;4.93;;;3.13;;
71395;SDS011;59888;55.814;37.132;2023-07-24T12:50:45;3.92;;;2.60;;
71395;SDS011;59888;55.814;37.132;2023-07-24T12:53:11;6.78;;;3.53;;
71395;SDS011;59888;55.814;37.132;2023-07-24T12:55:37;6.50;;;3.10;;
71395;SDS011;59888;55.814;37.132;2023-07-24T12:58:03;5.95;;;3.33;;
71395;SDS011;59888;55.814;37.132;2023-07-24T13:00:29;5.90;;;3.50;;
71395;SDS011;59888;55.814;37.132;2023-07-24T13:02:57;4.38;;;2.65;;
71395;SDS011;59888;55.814;37.132;2023-07-24T13:05:23;6.38;;;3.55;;
71395;SDS011;59888;55.814;37.132;2023-07-24T13:07:49;5.82;;;3.17;;
71395;SDS011;59888;55.814;37.132;2023-07-24T13:10:15;6.65;;;3.60;;
71395;SDS011;59888;55.814;37.132;2023-07-24T13:12:41;4.75;;;3.30;;
71395;SDS011;59888;55.814;37.132;2023-07-24T13:15:07;4.30;;;3.33;;
71395;SDS011;59888;55.814;37.132;2023-07-24T13:17:33;6.53;;;3.55;;
71395;SDS011;59888;55.814;37.132;2023-07-24T13:20:00;5.20;;;3.67;;
71395;SDS011;59888;55.814;37.132;2023-07-24T13:26:58;4.90;;;3.00;;
71395;SDS011;59888;55.814;37.132;2023-07-24T13:29:24;6.15;;;3.42;;
71395;SDS011;59888;55.814;37.132;2023-07-24T13:31:50;8.65;;;3.78;;
71395;SDS011;59888;55.814;37.132;2023-07-24T13:34:21;6.40;;;3.58;;
71395;SDS011;59888;55.814;37.132;2023-07-24T13:36:49;5.82;;;3.25;;
71395;SDS011;59888;55.814;37.132;2023-07-24T13:39:15;6.63;;;3.78;;
71395;SDS011;59888;55.814;37.132;2023-07-24T13:41:43;5.57;;;3.60;;
71395;SDS011;59888;55.814;37.132;2023-07-24T13:44:09;5.45;;;3.40;;
71395;SDS011;59888;55.814;37.132;2023-07-24T13:46:35;6.30;;;3.50;;
71395;SDS011;59888;55.814;37.132;2023-07-24T13:49:03;4.93;;;3.40;;
71395;SDS011;59888;55.814;37.132;2023-07-24T13:51:31;7.25;;;3.53;;
71395;SDS011;59888;55.814;37.132;2023-07-24T13:53:57;5.55;;;3.67;;
71395;SDS011;59888;55.814;37.132;2023-07-24T13:56:24;5.05;;;3.72;;
71395;SDS011;59888;55.814;37.132;2023-07-24T13:58:53;6.05;;;3.38;;
71395;SDS011;59888;55.814;37.132;2023-07-24T14:01:19;8.90;;;3.53;;
71395;SDS011;59888;55.814;37.132;2023-07-24T14:03:47;5.90;;;3.38;;
71395;SDS011;59888;55.814;37.132;2023-07-24T14:06:13;4.38;;;3.45;;
71395;SDS011;59888;55.814;37.132;2023-07-24T14:08:39;4.97;;;3.55;;
71395;SDS011;59888;55.814;37.132;2023-07-24T14:11:09;6.30;;;3.17;;
71395;SDS011;59888;55.814;37.132;2023-07-24T14:13:37;5.00;;;3.70;;
71395;SDS011;59888;55.814;37.132;2023-07-24T14:16:03;6.72;;;3.60;;
71395;SDS011;59888;55.814;37.132;2023-07-24T14:18:29;8.70;;;3.78;;
71395;SDS011;59888;55.814;37.132;2023-07-24T14:20:55;5.65;;;3.47;;
71395;SDS011;59888;55.814;37.132;2023-07-24T14:23:22;7.85;;;4.05;;
71395;SDS011;59888;55.814;37.132;2023-07-24T14:25:48;5.03;;;3.63;;
71395;SDS011;59888;55.814;37.132;2023-07-24T14:28:15;10.65;;;3.63;;
71395;SDS011;59888;55.814;37.132;2023-07-24T14:30:41;5.10;;;3.22;;
71395;SDS011;59888;55.814;37.132;2023-07-24T14:33:07;5.40;;;3.17;;
71395;SDS011;59888;55.814;37.132;2023-07-24T14:35:34;6.18;;;2.95;;
71395;SDS011;59888;55.814;37.132;2023-07-24T14:38:01;6.40;;;3.47;;
71395;SDS011;59888;55.814;37.132;2023-07-24T14:40:27;5.15;;;3.20;;
71395;SDS011;59888;55.814;37.132;2023-07-24T14:42:53;4.43;;;3.20;;
71395;SDS011;59888;55.814;37.132;2023-07-24T14:45:19;5.80;;;3.50;;
71395;SDS011;59888;55.814;37.132;2023-07-24T14:47:45;5.25;;;2.97;;
71395;SDS011;59888;55.814;37.132;2023-07-24T14:50:11;4.10;;;3.13;;
71395;SDS011;59888;55.814;37.132;2023-07-24T14:52:37;6.70;;;2.72;;
71395;SDS011;59888;55.814;37.132;2023-07-24T14:55:04;4.15;;;2.75;;
71395;SDS011;59888;55.814;37.132;2023-07-24T14:57:30;4.55;;;2.88;;
71395;SDS011;59888;55.814;37.132;2023-07-24T14:59:56;4.90;;;3.00;;
71395;SDS011;59888;55.814;37.132;2023-07-24T15:02:22;7.35;;;3.05;;
71395;SDS011;59888;55.814;37.132;2023-07-24T15:04:49;5.60;;;3.17;;
71395;SDS011;59888;55.814;37.132;2023-07-24T15:07:15;4.93;;;3.08;;
71395;SDS011;59888;55.814;37.132;2023-07-24T15:09:41;4.53;;;2.80;;
71395;SDS011;59888;55.814;37.132;2023-07-24T15:12:08;3.63;;;2.58;;
71395;SDS011;59888;55.814;37.132;2023-07-24T15:14:34;4.78;;;2.63;;
71395;SDS011;59888;55.814;37.132;2023-07-24T15:17:00;3.63;;;2.70;;
71395;SDS011;59888;55.814;37.132;2023-07-24T15:19:27;6.35;;;2.60;;
71395;SDS011;59888;55.814;37.132;2023-07-24T15:21:53;5.22;;;2.30;;
71395;SDS011;59888;55.814;37.132;2023-07-24T15:24:19;4.13;;;2.83;;
71395;SDS011;59888;55.814;37.132;2023-07-24T15:26:45;5.25;;;2.40;;
71395;SDS011;59888;55.814;37.132;2023-07-24T15:29:12;4.38;;;2.50;;